createdAt,value
2019-05-07T00:45:20.656Z,5.13
2019-05-07T00:49:33.049Z,5.13
2019-05-07T00:57:46.984Z,5.13
2019-05-07T01:00:19.025Z,5.13
2019-05-07T01:03:06.442Z,5.13
2019-05-07T01:06:05.975Z,5.13
2019-05-07T01:12:48.931Z,5.13
2019-05-07T01:23:42.801Z,5.13
2019-05-07T01:34:54.653Z,5.13
2019-05-07T01:40:23.568Z,5.13
2019-05-07T01:44:44.855Z,5.13
2019-05-07T01:50:22.725Z,5.13
2019-05-07T01:52:46.529Z,5.13
2019-05-07T01:55:10.201Z,2.80
2019-05-07T01:57:35.693Z,3.04
2019-05-07T02:00:06.467Z,3.04
2019-05-07T02:02:32.081Z,3.04
2019-05-07T02:05:04.063Z,3.04
2019-05-07T02:07:33.457Z,3.04
2019-05-07T02:10:02.851Z,3.04
2019-05-07T02:12:28.224Z,3.44
2019-05-07T02:14:53.027Z,3.48
2019-05-07T02:17:16.798Z,3.44
2019-05-07T02:19:42.371Z,3.43
2019-05-07T02:22:05.654Z,3.27
2019-05-07T02:24:29.364Z,3.21
2019-05-07T02:26:52.900Z,3.21
2019-05-07T02:29:16.426Z,3.21
2019-05-07T02:31:39.966Z,3.16
2019-05-07T02:34:03.496Z,3.04
2019-05-07T02:40:33.926Z,3.01
2019-05-07T02:43:46.289Z,3.01
2019-05-07T02:47:33.056Z,3.01
2019-05-07T02:49:58.619Z,3.01
2019-05-07T02:52:33.565Z,3.01
2019-05-07T02:55:03.890Z,3.01
2019-05-07T02:57:27.815Z,3.01
2019-05-07T03:00:14.717Z,2.84
2019-05-07T03:03:35.850Z,2.84
2019-05-07T03:06:06.588Z,2.84
2019-05-07T03:08:33.065Z,2.84
2019-05-07T03:10:55.744Z,2.84
2019-05-07T03:13:23.218Z,2.84
2019-05-07T03:17:13.479Z,2.84
2019-05-07T03:19:38.824Z,2.84
2019-05-07T03:22:04.990Z,2.84
2019-05-07T03:24:35.812Z,2.84
2019-05-07T03:27:03.270Z,2.84
2019-05-07T03:29:44.217Z,2.84
2019-05-07T03:32:28.106Z,2.84
2019-05-07T03:34:57.747Z,2.84
2019-05-07T03:37:19.999Z,2.84
2019-05-07T03:39:43.646Z,2.97
2019-05-07T03:42:09.331Z,2.94
2019-05-07T03:44:44.576Z,2.94
2019-05-07T03:47:26.442Z,2.94
2019-05-07T03:49:53.327Z,3.03
2019-05-07T03:56:03.665Z,3.07
2019-05-07T04:06:03.812Z,3.07
2019-05-07T04:08:28.482Z,3.07
2019-05-07T04:11:25.204Z,3.07
2019-05-07T04:13:58.940Z,3.07
2019-05-07T04:16:26.040Z,3.07
2019-05-07T04:18:52.824Z,3.07
2019-05-07T04:21:15.326Z,3.07
2019-05-07T04:23:43.642Z,3.67
2019-05-07T04:26:14.075Z,3.67
2019-05-07T04:28:39.263Z,3.67
2019-05-07T04:31:03.279Z,3.77
2019-05-07T04:33:43.656Z,3.77
2019-05-07T04:36:14.305Z,3.52
2019-05-07T04:38:38.002Z,3.52
2019-05-07T04:42:13.313Z,3.39
2019-05-07T04:44:36.925Z,3.39
2019-05-07T04:48:56.758Z,3.35
2019-05-07T04:52:28.637Z,3.35
2019-05-07T04:54:57.571Z,3.35
2019-05-07T04:57:27.218Z,3.35
2019-05-07T04:59:53.359Z,3.35
2019-05-07T05:04:48.614Z,3.35
2019-05-07T05:07:13.374Z,3.35
2019-05-07T05:09:37.120Z,3.76
2019-05-07T05:15:57.800Z,3.72
2019-05-07T05:32:45.419Z,3.72
2019-05-07T05:35:14.996Z,3.72
2019-05-07T05:38:22.821Z,3.72
2019-05-07T05:42:11.847Z,3.72
2019-05-07T05:44:35.779Z,3.72
2019-05-07T05:46:59.713Z,3.72
2019-05-07T05:49:24.437Z,3.72
2019-05-07T05:52:32.851Z,3.72
2019-05-07T06:24:37.457Z,3.72
2019-05-07T06:27:02.911Z,3.72
2019-05-07T06:29:44.279Z,5.20
2019-05-07T06:32:09.459Z,5.20
2019-05-07T06:34:34.248Z,5.68
2019-05-07T06:36:57.978Z,5.74
2019-05-07T06:39:23.136Z,5.89
2019-05-07T06:42:07.298Z,5.75
2019-05-07T06:44:31.990Z,5.69
2019-05-07T06:46:55.630Z,6.03
2019-05-07T06:49:19.167Z,6.39
2019-05-07T06:51:52.816Z,6.69
2019-05-07T06:54:16.653Z,6.24
2019-05-07T06:56:42.145Z,6.68
2019-05-07T06:59:07.397Z,7.12
2019-05-07T07:01:32.869Z,7.45
2019-05-07T07:04:09.795Z,7.70
2019-05-07T07:06:39.229Z,7.12
2019-05-07T07:09:22.261Z,7.31
2019-05-07T07:11:56.304Z,7.21
2019-05-07T07:14:23.864Z,7.49
2019-05-07T07:16:47.423Z,7.55
2019-05-07T07:19:12.487Z,7.31
2019-05-07T07:21:36.158Z,7.27
2019-05-07T07:23:59.697Z,7.36
2019-05-07T07:26:23.239Z,7.51
2019-05-07T07:28:46.767Z,7.55
2019-05-07T07:31:26.250Z,7.79
2019-05-07T07:33:54.227Z,7.79
2019-05-07T07:36:22.581Z,7.79
2019-05-07T07:38:52.609Z,7.79
2019-05-07T07:42:20.259Z,7.79
2019-05-07T07:45:17.662Z,7.79
2019-05-07T07:50:02.323Z,7.79
2019-05-07T07:52:26.063Z,7.79
2019-05-07T07:54:49.589Z,8.72
2019-05-07T07:57:52.063Z,9.44
2019-05-07T08:14:23.127Z,9.44
2019-05-07T08:19:39.192Z,9.44
2019-05-07T08:24:04.330Z,9.44
2019-05-07T08:26:27.981Z,9.44
2019-05-07T08:36:37.396Z,9.44
2019-05-07T08:39:02.572Z,9.44
2019-05-07T08:41:31.745Z,11.03
2019-05-07T08:44:19.242Z,11.03
2019-05-07T08:46:48.368Z,11.03
2019-05-07T08:49:13.614Z,11.03
2019-05-07T08:51:37.135Z,11.03
2019-05-07T08:54:06.419Z,11.03
2019-05-07T08:56:31.862Z,11.03
2019-05-07T09:13:35.980Z,11.03
2019-05-07T09:15:59.503Z,11.03
2019-05-07T09:18:23.051Z,11.94
2019-05-07T09:20:46.642Z,12.17
2019-05-07T09:23:12.216Z,12.01
2019-05-07T09:25:38.856Z,12.01
2019-05-07T09:28:02.744Z,12.01
2019-05-07T09:30:44.352Z,12.75
2019-05-07T09:33:12.574Z,12.84
2019-05-07T09:35:47.199Z,13.28
2019-05-07T09:38:12.185Z,13.28
2019-05-07T09:40:35.968Z,13.28
2019-05-07T09:42:59.485Z,13.28
2019-05-07T09:45:23.693Z,13.56
2019-05-07T09:47:47.210Z,13.56
2019-05-07T09:50:12.118Z,13.50
2019-05-07T09:52:35.657Z,13.50
2019-05-07T09:54:59.203Z,13.50
2019-05-07T09:57:30.187Z,13.50
2019-05-07T10:00:12.508Z,14.06
2019-05-07T10:02:36.153Z,13.94
2019-05-07T10:05:02.054Z,14.23
2019-05-07T10:07:25.368Z,13.87
2019-05-07T10:09:48.969Z,14.64
2019-05-07T10:12:26.310Z,14.85
2019-05-07T10:14:49.922Z,14.78
2019-05-07T10:18:02.300Z,15.11
2019-05-07T10:20:26.980Z,15.16
2019-05-07T10:22:51.984Z,14.67
2019-05-07T10:25:15.876Z,14.41
2019-05-07T10:27:41.857Z,14.36
2019-05-07T10:30:06.054Z,13.91
2019-05-07T10:32:29.655Z,13.45
2019-05-07T10:34:53.268Z,13.35
2019-05-07T10:37:16.920Z,13.13
2019-05-07T10:39:40.535Z,12.89
2019-05-07T10:42:04.319Z,12.56
2019-05-07T10:44:37.953Z,13.07
2019-05-07T10:47:19.490Z,12.90
2019-05-07T10:49:47.661Z,12.54
2019-05-07T10:52:12.567Z,13.14
2019-05-07T10:54:36.222Z,13.40
2019-05-07T10:56:59.750Z,14.09
2019-05-07T10:59:23.335Z,14.65
2019-05-07T11:02:02.327Z,14.92
2019-05-07T11:04:39.056Z,15.55
2019-05-07T11:06:52.416Z,15.53
2019-05-07T11:09:16.038Z,15.53
2019-05-07T11:11:39.600Z,14.65
2019-05-07T11:14:03.284Z,14.35
2019-05-07T11:16:28.463Z,14.61
2019-05-07T11:18:53.080Z,14.18
2019-05-07T11:21:32.967Z,13.88
2019-05-07T11:23:56.002Z,13.88
2019-05-07T11:26:19.543Z,13.54
2019-05-07T11:28:43.119Z,13.30
2019-05-07T11:31:06.741Z,13.44
2019-05-07T11:33:32.336Z,13.08
2019-05-07T11:35:55.627Z,12.52
2019-05-07T11:38:22.263Z,12.49
2019-05-07T11:40:44.512Z,12.49
2019-05-07T11:43:09.688Z,12.26
2019-05-07T11:45:37.977Z,12.26
2019-05-07T11:48:01.928Z,11.98
2019-05-07T11:50:33.025Z,12.27
2019-05-07T11:52:58.370Z,12.33
2019-05-07T11:55:22.447Z,12.36
2019-05-07T11:57:46.307Z,12.33
2019-05-07T12:00:13.164Z,12.33
2019-05-07T12:02:36.660Z,12.60
2019-05-07T12:05:01.956Z,13.04
2019-05-07T12:07:25.497Z,12.62
2019-05-07T12:09:49.027Z,12.45
2019-05-07T12:12:12.813Z,12.29
2019-05-07T12:15:12.479Z,12.92
2019-05-07T12:17:36.155Z,12.92
2019-05-07T12:20:02.202Z,13.31
2019-05-07T12:22:42.797Z,12.54
2019-05-07T12:25:06.867Z,12.83
2019-05-07T12:27:32.333Z,12.98
2019-05-07T12:29:55.653Z,13.08
2019-05-07T12:32:22.075Z,13.13
2019-05-07T12:34:52.755Z,13.55
2019-05-07T12:37:16.590Z,12.75
2019-05-07T12:39:42.192Z,12.75
2019-05-07T12:42:05.530Z,12.68
2019-05-07T12:44:29.126Z,12.57
2019-05-07T12:46:52.733Z,12.72
2019-05-07T12:49:16.245Z,12.97
2019-05-07T12:51:53.352Z,13.13
2019-05-07T12:57:15.704Z,12.92
2019-05-07T12:59:39.609Z,12.84
2019-05-07T13:02:33.948Z,12.84
2019-05-07T13:05:12.001Z,12.94
2019-05-07T13:07:37.173Z,12.94
2019-05-07T13:10:02.591Z,13.28
2019-05-07T13:12:32.264Z,13.02
2019-05-07T13:14:55.931Z,13.02
2019-05-07T13:17:19.496Z,13.34
2019-05-07T13:19:43.024Z,13.23
2019-05-07T13:22:06.650Z,13.10
2019-05-07T13:24:32.120Z,13.08
2019-05-07T13:33:34.551Z,13.01
2019-05-07T13:37:24.449Z,13.01
2019-05-07T13:39:52.848Z,13.01
2019-05-07T13:42:18.315Z,13.33
2019-05-07T13:44:55.530Z,13.33
2019-05-07T13:47:26.980Z,13.33
2019-05-07T13:49:53.625Z,14.56
2019-05-07T13:52:16.951Z,14.33
2019-05-07T13:54:41.948Z,14.29
2019-05-07T13:57:05.750Z,14.21
2019-05-07T13:59:29.455Z,14.08
2019-05-07T14:02:04.709Z,14.03
2019-05-07T14:04:27.109Z,13.54
2019-05-07T14:06:52.827Z,13.06
2019-05-07T14:09:23.858Z,12.84
2019-05-07T14:11:45.951Z,12.98
2019-05-07T14:14:29.097Z,12.74
2019-05-07T14:16:53.142Z,12.87
2019-05-07T14:19:16.854Z,13.77
2019-05-07T14:21:42.219Z,15.84
